Algodones, New Mexico
Current Conditions -  °F | °C
As of 7:52 AM on Monday 22 Dec 2014 (Local Time) from KABQ Reporting Station
Scattered Clouds Scattered Clouds  
Wind Chill: -3°   Ceiling: Unl
Heat Index:   Visibility: 10mi
Dew Point: -2°   Wind: 8mph
Humidity: 82%   Direction: 130°SE
Pressure: 29.91"   Gusts: NA
Location:  35.38°N, 106.48°W
Report Text: KABQ 221452Z 13007KT 10SM FEW040 SCT220 01/M02 A2991 RMK AO2 SLP122 MTN TOP OBSC NE T00111017 56001
Loading
Personal Weather Stations






























Interactive Weather Map New forecast layout! Learn more

10-Day Weather Forecast

Advertisements
Track Severe Weather on mobile